sensor_id;sensor_type;location;lat;lon;timestamp;pressure;altitude;pressure_sealevel;temperature;humidity
47080;BME280;33067;49.296;14.470;2023-05-07T00:01:54;97083.91;;;15.40;42.43
47080;BME280;33067;49.296;14.470;2023-05-07T00:04:20;97085.09;;;15.12;42.12
47080;BME280;33067;49.296;14.470;2023-05-07T00:06:46;97087.64;;;15.32;41.65
47080;BME280;33067;49.296;14.470;2023-05-07T00:09:12;97089.88;;;15.34;41.78
47080;BME280;33067;49.296;14.470;2023-05-07T00:11:37;97088.91;;;15.96;41.41
47080;BME280;33067;49.296;14.470;2023-05-07T00:14:03;97089.37;;;15.87;41.87
47080;BME280;33067;49.296;14.470;2023-05-07T00:16:29;97089.45;;;15.63;42.42
47080;BME280;33067;49.296;14.470;2023-05-07T00:18:54;97091.47;;;15.98;42.00
47080;BME280;33067;49.296;14.470;2023-05-07T00:21:19;97091.00;;;15.74;41.89
47080;BME280;33067;49.296;14.470;2023-05-07T00:23:45;97094.27;;;15.59;41.40
47080;BME280;33067;49.296;14.470;2023-05-07T00:26:11;97100.12;;;14.82;42.45
47080;BME280;33067;49.296;14.470;2023-05-07T00:28:37;97099.91;;;14.59;42.23
47080;BME280;33067;49.296;14.470;2023-05-07T00:31:02;97093.27;;;15.03;41.73
47080;BME280;33067;49.296;14.470;2023-05-07T00:33:27;97094.98;;;15.33;41.63
47080;BME280;33067;49.296;14.470;2023-05-07T00:35:53;97097.30;;;15.30;41.54
47080;BME280;33067;49.296;14.470;2023-05-07T00:38:18;97101.42;;;15.53;41.26
47080;BME280;33067;49.296;14.470;2023-05-07T00:40:44;97104.43;;;14.72;41.96
47080;BME280;33067;49.296;14.470;2023-05-07T00:43:09;97104.44;;;14.91;42.25
47080;BME280;33067;49.296;14.470;2023-05-07T00:45:35;97105.73;;;14.17;43.30
47080;BME280;33067;49.296;14.470;2023-05-07T00:48:01;97106.12;;;13.60;44.01
47080;BME280;33067;49.296;14.470;2023-05-07T00:50:26;97107.11;;;14.08;43.71
47080;BME280;33067;49.296;14.470;2023-05-07T00:52:52;97109.79;;;13.69;44.38
47080;BME280;33067;49.296;14.470;2023-05-07T00:55:17;97110.32;;;13.37;44.77
47080;BME280;33067;49.296;14.470;2023-05-07T00:57:43;97120.18;;;14.08;44.45
47080;BME280;33067;49.296;14.470;2023-05-07T01:00:09;97121.42;;;14.25;43.81
47080;BME280;33067;49.296;14.470;2023-05-07T01:02:33;97122.19;;;14.39;44.15
47080;BME280;33067;49.296;14.470;2023-05-07T01:05:00;97119.39;;;14.82;43.20
47080;BME280;33067;49.296;14.470;2023-05-07T01:07:24;97121.64;;;14.86;43.08
47080;BME280;33067;49.296;14.470;2023-05-07T01:09:50;97126.28;;;14.15;43.42
47080;BME280;33067;49.296;14.470;2023-05-07T01:12:15;97130.32;;;13.74;43.71
47080;BME280;33067;49.296;14.470;2023-05-07T01:14:41;97134.84;;;14.18;43.25
47080;BME280;33067;49.296;14.470;2023-05-07T01:17:06;97140.41;;;14.46;43.16
47080;BME280;33067;49.296;14.470;2023-05-07T01:19:32;97140.09;;;14.05;43.51
47080;BME280;33067;49.296;14.470;2023-05-07T01:22:02;97139.33;;;14.15;43.64
47080;BME280;33067;49.296;14.470;2023-05-07T01:24:22;97134.76;;;14.36;42.98
47080;BME280;33067;49.296;14.470;2023-05-07T01:26:48;97135.12;;;14.67;42.65
47080;BME280;33067;49.296;14.470;2023-05-07T01:29:13;97137.10;;;15.16;41.85
47080;BME280;33067;49.296;14.470;2023-05-07T01:31:41;97134.23;;;15.42;41.48
47080;BME280;33067;49.296;14.470;2023-05-07T01:34:05;97130.59;;;15.65;40.96
47080;BME280;33067;49.296;14.470;2023-05-07T01:36:30;97132.83;;;15.04;43.25
47080;BME280;33067;49.296;14.470;2023-05-07T01:38:56;97130.73;;;14.91;42.84
47080;BME280;33067;49.296;14.470;2023-05-07T01:41:22;97136.65;;;15.34;42.66
47080;BME280;33067;49.296;14.470;2023-05-07T01:43:49;97141.41;;;14.85;43.03
47080;BME280;33067;49.296;14.470;2023-05-07T01:46:13;97143.50;;;15.01;42.68
47080;BME280;33067;49.296;14.470;2023-05-07T01:48:38;97144.72;;;15.31;42.41
47080;BME280;33067;49.296;14.470;2023-05-07T01:51:04;97145.63;;;15.21;42.19
47080;BME280;33067;49.296;14.470;2023-05-07T01:53:28;97144.30;;;14.86;42.29
47080;BME280;33067;49.296;14.470;2023-05-07T01:55:54;97151.35;;;14.87;42.43
47080;BME280;33067;49.296;14.470;2023-05-07T01:58:18;97150.96;;;14.61;43.11
47080;BME280;33067;49.296;14.470;2023-05-07T02:00:45;97147.82;;;14.21;43.65
47080;BME280;33067;49.296;14.470;2023-05-07T02:03:09;97147.82;;;14.84;43.00
47080;BME280;33067;49.296;14.470;2023-05-07T02:05:34;97151.01;;;14.35;43.47
47080;BME280;33067;49.296;14.470;2023-05-07T02:07:59;97146.00;;;14.52;42.98
47080;BME280;33067;49.296;14.470;2023-05-07T02:13:01;97151.92;;;14.55;43.16
47080;BME280;33067;49.296;14.470;2023-05-07T02:15:26;97156.76;;;14.55;43.35
47080;BME280;33067;49.296;14.470;2023-05-07T02:17:59;97160.21;;;14.41;43.41
47080;BME280;33067;49.296;14.470;2023-05-07T02:20:18;97159.61;;;14.38;43.07
47080;BME280;33067;49.296;14.470;2023-05-07T02:22:42;97154.54;;;14.25;43.29
47080;BME280;33067;49.296;14.470;2023-05-07T02:25:08;97152.52;;;14.44;43.43
47080;BME280;33067;49.296;14.470;2023-05-07T02:27:33;97152.74;;;14.55;43.36
47080;BME280;33067;49.296;14.470;2023-05-07T02:30:00;97150.59;;;14.23;43.48
47080;BME280;33067;49.296;14.470;2023-05-07T02:32:24;97149.81;;;14.37;43.50
47080;BME280;33067;49.296;14.470;2023-05-07T02:34:51;97146.75;;;14.31;43.68
47080;BME280;33067;49.296;14.470;2023-05-07T02:37:15;97144.29;;;14.63;42.76
47080;BME280;33067;49.296;14.470;2023-05-07T02:39:41;97142.64;;;14.50;42.85
47080;BME280;33067;49.296;14.470;2023-05-07T02:42:08;97143.98;;;14.79;42.66
47080;BME280;33067;49.296;14.470;2023-05-07T02:44:32;97140.57;;;14.79;42.86
47080;BME280;33067;49.296;14.470;2023-05-07T02:46:57;97135.97;;;14.62;42.60
47080;BME280;33067;49.296;14.470;2023-05-07T02:49:22;97133.90;;;14.98;42.47
47080;BME280;33067;49.296;14.470;2023-05-07T02:51:48;97131.91;;;14.50;42.54
47080;BME280;33067;49.296;14.470;2023-05-07T02:54:13;97132.01;;;14.52;42.62
47080;BME280;33067;49.296;14.470;2023-05-07T02:56:38;97134.72;;;14.44;43.06
47080;BME280;33067;49.296;14.470;2023-05-07T02:59:03;97137.87;;;14.33;42.88
47080;BME280;33067;49.296;14.470;2023-05-07T03:01:28;97139.25;;;14.54;42.86
47080;BME280;33067;49.296;14.470;2023-05-07T03:03:55;97143.33;;;14.71;43.28
47080;BME280;33067;49.296;14.470;2023-05-07T03:06:19;97145.50;;;14.68;43.46
47080;BME280;33067;49.296;14.470;2023-05-07T03:08:44;97142.76;;;14.43;42.47
47080;BME280;33067;49.296;14.470;2023-05-07T03:11:10;97142.88;;;14.22;43.17
47080;BME280;33067;49.296;14.470;2023-05-07T03:13:35;97140.27;;;13.96;43.86
47080;BME280;33067;49.296;14.470;2023-05-07T03:16:01;97139.76;;;14.09;43.70
47080;BME280;33067;49.296;14.470;2023-05-07T03:18:27;97148.37;;;14.26;43.64
47080;BME280;33067;49.296;14.470;2023-05-07T03:20:52;97147.81;;;14.13;44.19
47080;BME280;33067;49.296;14.470;2023-05-07T03:23:18;97149.26;;;14.12;43.81
47080;BME280;33067;49.296;14.470;2023-05-07T03:25:42;97150.58;;;13.75;44.22
47080;BME280;33067;49.296;14.470;2023-05-07T03:28:07;97149.76;;;13.61;44.47
47080;BME280;33067;49.296;14.470;2023-05-07T03:30:33;97150.43;;;13.42;44.76
47080;BME280;33067;49.296;14.470;2023-05-07T03:32:58;97150.47;;;13.57;45.11
47080;BME280;33067;49.296;14.470;2023-05-07T03:35:23;97152.04;;;13.27;45.04
47080;BME280;33067;49.296;14.470;2023-05-07T03:37:49;97148.13;;;13.79;44.54
47080;BME280;33067;49.296;14.470;2023-05-07T03:40:15;97146.82;;;13.72;44.46
47080;BME280;33067;49.296;14.470;2023-05-07T03:42:40;97149.52;;;13.83;44.35
47080;BME280;33067;49.296;14.470;2023-05-07T03:45:06;97154.97;;;13.88;44.15
47080;BME280;33067;49.296;14.470;2023-05-07T03:47:32;97155.60;;;14.01;44.00
47080;BME280;33067;49.296;14.470;2023-05-07T03:49:56;97156.82;;;14.16;43.95
47080;BME280;33067;49.296;14.470;2023-05-07T03:52:22;97157.03;;;13.85;44.44
47080;BME280;33067;49.296;14.470;2023-05-07T03:54:48;97155.05;;;13.90;44.25
47080;BME280;33067;49.296;14.470;2023-05-07T03:57:14;97155.52;;;13.65;44.81
47080;BME280;33067;49.296;14.470;2023-05-07T03:59:38;97158.87;;;13.43;44.93
47080;BME280;33067;49.296;14.470;2023-05-07T04:02:03;97158.08;;;13.39;45.66
47080;BME280;33067;49.296;14.470;2023-05-07T04:04:28;97158.48;;;13.54;44.97
47080;BME280;33067;49.296;14.470;2023-05-07T04:06:53;97160.81;;;13.22;45.35
47080;BME280;33067;49.296;14.470;2023-05-07T04:09:19;97164.40;;;13.26;46.33
47080;BME280;33067;49.296;14.470;2023-05-07T04:11:44;97167.23;;;13.22;45.92
47080;BME280;33067;49.296;14.470;2023-05-07T04:14:09;97166.90;;;13.19;45.57
47080;BME280;33067;49.296;14.470;2023-05-07T04:16:35;97168.56;;;12.91;46.50
47080;BME280;33067;49.296;14.470;2023-05-07T04:19:00;97170.84;;;13.46;45.56
47080;BME280;33067;49.296;14.470;2023-05-07T04:21:25;97168.86;;;13.12;45.57
47080;BME280;33067;49.296;14.470;2023-05-07T04:23:51;97176.80;;;13.27;45.35
47080;BME280;33067;49.296;14.470;2023-05-07T04:26:16;97177.12;;;12.80;45.57
47080;BME280;33067;49.296;14.470;2023-05-07T04:28:42;97183.86;;;12.77;45.77
47080;BME280;33067;49.296;14.470;2023-05-07T04:31:07;97181.13;;;13.08;45.67
47080;BME280;33067;49.296;14.470;2023-05-07T04:33:33;97186.64;;;13.19;45.72
47080;BME280;33067;49.296;14.470;2023-05-07T04:36:01;97189.68;;;12.82;46.43
47080;BME280;33067;49.296;14.470;2023-05-07T04:38:24;97194.90;;;12.95;45.85
47080;BME280;33067;49.296;14.470;2023-05-07T04:40:49;97199.30;;;12.82;46.12
47080;BME280;33067;49.296;14.470;2023-05-07T04:43:14;97197.99;;;12.91;45.41
47080;BME280;33067;49.296;14.470;2023-05-07T04:45:40;97201.79;;;13.29;45.38
47080;BME280;33067;49.296;14.470;2023-05-07T04:48:06;97211.62;;;13.23;45.63
47080;BME280;33067;49.296;14.470;2023-05-07T04:50:32;97215.78;;;12.86;45.85
47080;BME280;33067;49.296;14.470;2023-05-07T04:52:56;97216.56;;;12.27;46.36
47080;BME280;33067;49.296;14.470;2023-05-07T04:55:21;97217.82;;;12.44;47.05
47080;BME280;33067;49.296;14.470;2023-05-07T04:57:47;97218.59;;;12.31;46.93
47080;BME280;33067;49.296;14.470;2023-05-07T05:00:13;97222.17;;;12.54;46.62
47080;BME280;33067;49.296;14.470;2023-05-07T05:02:38;97221.20;;;12.76;45.98
47080;BME280;33067;49.296;14.470;2023-05-07T05:05:04;97220.90;;;12.60;45.78
47080;BME280;33067;49.296;14.470;2023-05-07T05:07:29;97218.36;;;12.67;45.95
47080;BME280;33067;49.296;14.470;2023-05-07T05:09:55;97221.24;;;12.84;46.68
47080;BME280;33067;49.296;14.470;2023-05-07T05:12:20;97223.38;;;12.66;46.26
47080;BME280;33067;49.296;14.470;2023-05-07T05:14:46;97228.78;;;12.63;46.48
47080;BME280;33067;49.296;14.470;2023-05-07T05:17:11;97229.70;;;12.61;46.48
47080;BME280;33067;49.296;14.470;2023-05-07T05:19:37;97229.16;;;12.43;47.08
47080;BME280;33067;49.296;14.470;2023-05-07T05:22:02;97231.03;;;12.54;46.67
47080;BME280;33067;49.296;14.470;2023-05-07T05:24:28;97236.87;;;12.80;46.03
47080;BME280;33067;49.296;14.470;2023-05-07T05:26:53;97237.80;;;12.60;46.33
47080;BME280;33067;49.296;14.470;2023-05-07T05:29:19;97239.01;;;12.62;46.17
47080;BME280;33067;49.296;14.470;2023-05-07T05:31:44;97245.06;;;12.76;46.30
47080;BME280;33067;49.296;14.470;2023-05-07T05:34:09;97242.69;;;12.47;46.23
47080;BME280;33067;49.296;14.470;2023-05-07T05:36:35;97245.42;;;13.03;45.43
47080;BME280;33067;49.296;14.470;2023-05-07T05:39:00;97243.17;;;12.95;45.86
47080;BME280;33067;49.296;14.470;2023-05-07T05:41:26;97246.50;;;12.34;46.44
47080;BME280;33067;49.296;14.470;2023-05-07T05:43:51;97243.59;;;12.39;46.33
47080;BME280;33067;49.296;14.470;2023-05-07T05:46:17;97246.08;;;12.38;46.77
47080;BME280;33067;49.296;14.470;2023-05-07T05:48:42;97256.76;;;11.62;47.69
47080;BME280;33067;49.296;14.470;2023-05-07T05:51:07;97254.52;;;11.93;47.01
47080;BME280;33067;49.296;14.470;2023-05-07T05:53:33;97256.62;;;12.59;46.62
47080;BME280;33067;49.296;14.470;2023-05-07T05:55:59;97257.08;;;12.12;47.14
47080;BME280;33067;49.296;14.470;2023-05-07T05:58:26;97258.75;;;12.18;46.87
47080;BME280;33067;49.296;14.470;2023-05-07T06:00:49;97264.86;;;11.86;46.90
47080;BME280;33067;49.296;14.470;2023-05-07T06:03:15;97269.61;;;12.04;47.65
47080;BME280;33067;49.296;14.470;2023-05-07T06:05:40;97267.67;;;11.65;47.16
47080;BME280;33067;49.296;14.470;2023-05-07T06:08:05;97266.06;;;10.97;49.31
47080;BME280;33067;49.296;14.470;2023-05-07T06:10:31;97265.43;;;11.57;48.69
47080;BME280;33067;49.296;14.470;2023-05-07T06:12:56;97270.11;;;11.65;48.30
47080;BME280;33067;49.296;14.470;2023-05-07T06:15:21;97267.04;;;11.96;47.86
47080;BME280;33067;49.296;14.470;2023-05-07T06:17:47;97270.64;;;11.13;49.25
47080;BME280;33067;49.296;14.470;2023-05-07T06:20:13;97273.89;;;12.28;47.55
47080;BME280;33067;49.296;14.470;2023-05-07T06:22:38;97272.62;;;12.71;46.02
47080;BME280;33067;49.296;14.470;2023-05-07T06:25:04;97280.16;;;12.82;46.11
47080;BME280;33067;49.296;14.470;2023-05-07T06:27:29;97283.07;;;12.64;45.22
47080;BME280;33067;49.296;14.470;2023-05-07T06:29:55;97281.73;;;12.50;45.33
47080;BME280;33067;49.296;14.470;2023-05-07T06:32:21;97284.51;;;12.63;44.81
47080;BME280;33067;49.296;14.470;2023-05-07T06:34:46;97283.53;;;12.91;43.86
47080;BME280;33067;49.296;14.470;2023-05-07T06:37:11;97283.84;;;13.48;43.26
47080;BME280;33067;49.296;14.470;2023-05-07T06:39:37;97285.71;;;12.98;44.04
47080;BME280;33067;49.296;14.470;2023-05-07T06:42:03;97287.49;;;12.96;43.53
47080;BME280;33067;49.296;14.470;2023-05-07T06:44:27;97292.49;;;13.55;43.25
47080;BME280;33067;49.296;14.470;2023-05-07T06:46:53;97298.67;;;12.93;43.67
47080;BME280;33067;49.296;14.470;2023-05-07T06:49:18;97299.91;;;12.35;44.85
47080;BME280;33067;49.296;14.470;2023-05-07T06:51:43;97295.22;;;12.58;44.74
47080;BME280;33067;49.296;14.470;2023-05-07T06:54:09;97300.37;;;12.97;44.29
47080;BME280;33067;49.296;14.470;2023-05-07T06:56:34;97303.72;;;12.69;44.17
47080;BME280;33067;49.296;14.470;2023-05-07T06:59:01;97302.30;;;13.34;43.07
47080;BME280;33067;49.296;14.470;2023-05-07T07:01:25;97305.78;;;13.06;44.17
47080;BME280;33067;49.296;14.470;2023-05-07T07:03:51;97303.20;;;12.83;44.00
47080;BME280;33067;49.296;14.470;2023-05-07T07:06:16;97302.91;;;13.46;43.66
47080;BME280;33067;49.296;14.470;2023-05-07T07:08:41;97303.13;;;13.41;42.85
47080;BME280;33067;49.296;14.470;2023-05-07T07:11:07;97303.72;;;13.98;42.21
47080;BME280;33067;49.296;14.470;2023-05-07T07:13:32;97302.26;;;13.54;42.23
47080;BME280;33067;49.296;14.470;2023-05-07T07:15:57;97300.99;;;13.72;42.72
47080;BME280;33067;49.296;14.470;2023-05-07T07:18:23;97299.99;;;13.71;42.68
47080;BME280;33067;49.296;14.470;2023-05-07T07:20:48;97300.36;;;14.35;41.72
47080;BME280;33067;49.296;14.470;2023-05-07T07:23:13;97299.21;;;13.69;41.98
47080;BME280;33067;49.296;14.470;2023-05-07T07:25:39;97300.29;;;13.70;42.29
47080;BME280;33067;49.296;14.470;2023-05-07T07:28:05;97296.14;;;14.39;41.05
47080;BME280;33067;49.296;14.470;2023-05-07T07:30:30;97297.80;;;14.25;41.21
47080;BME280;33067;49.296;14.470;2023-05-07T07:32:56;97302.03;;;13.90;41.71
47080;BME280;33067;49.296;14.470;2023-05-07T07:35:22;97301.26;;;13.87;42.03
47080;BME280;33067;49.296;14.470;2023-05-07T07:37:48;97298.66;;;14.42;40.81
47080;BME280;33067;49.296;14.470;2023-05-07T07:40:14;97297.02;;;13.63;42.48
47080;BME280;33067;49.296;14.470;2023-05-07T07:42:38;97299.55;;;13.50;41.97
47080;BME280;33067;49.296;14.470;2023-05-07T07:45:05;97305.56;;;13.48;42.25
47080;BME280;33067;49.296;14.470;2023-05-07T07:47:30;97312.81;;;14.14;41.56
47080;BME280;33067;49.296;14.470;2023-05-07T07:49:55;97315.73;;;13.86;41.67
47080;BME280;33067;49.296;14.470;2023-05-07T07:52:20;97315.34;;;13.75;41.59
47080;BME280;33067;49.296;14.470;2023-05-07T07:54:46;97318.38;;;13.53;41.81
47080;BME280;33067;49.296;14.470;2023-05-07T07:57:12;97317.73;;;14.64;40.74
47080;BME280;33067;49.296;14.470;2023-05-07T07:59:38;97314.99;;;14.42;40.99
47080;BME280;33067;49.296;14.470;2023-05-07T08:02:03;97314.21;;;14.74;40.13
47080;BME280;33067;49.296;14.470;2023-05-07T08:04:29;97315.42;;;14.35;40.68
47080;BME280;33067;49.296;14.470;2023-05-07T08:06:54;97322.70;;;14.08;41.18
47080;BME280;33067;49.296;14.470;2023-05-07T08:09:20;97322.27;;;14.42;40.63
47080;BME280;33067;49.296;14.470;2023-05-07T08:11:45;97325.06;;;14.00;40.69
47080;BME280;33067;49.296;14.470;2023-05-07T08:14:11;97330.27;;;14.35;40.38
47080;BME280;33067;49.296;14.470;2023-05-07T08:16:36;97332.95;;;14.26;40.78
47080;BME280;33067;49.296;14.470;2023-05-07T08:19:01;97333.35;;;14.45;40.99
47080;BME280;33067;49.296;14.470;2023-05-07T08:21:27;97335.86;;;14.70;40.75
47080;BME280;33067;49.296;14.470;2023-05-07T08:23:52;97340.33;;;14.78;40.62
47080;BME280;33067;49.296;14.470;2023-05-07T08:26:18;97341.33;;;14.99;39.89
47080;BME280;33067;49.296;14.470;2023-05-07T08:28:43;97343.31;;;15.05;40.01
47080;BME280;33067;49.296;14.470;2023-05-07T08:31:14;97340.77;;;15.20;39.91
47080;BME280;33067;49.296;14.470;2023-05-07T08:33:34;97340.51;;;14.97;39.99
47080;BME280;33067;49.296;14.470;2023-05-07T08:36:02;97342.65;;;15.13;39.79
47080;BME280;33067;49.296;14.470;2023-05-07T08:38:25;97341.49;;;14.83;39.89
47080;BME280;33067;49.296;14.470;2023-05-07T08:40:52;97342.52;;;15.10;40.29
47080;BME280;33067;49.296;14.470;2023-05-07T08:43:18;97347.38;;;15.69;39.16
47080;BME280;33067;49.296;14.470;2023-05-07T08:45:44;97347.92;;;15.08;39.53
47080;BME280;33067;49.296;14.470;2023-05-07T08:48:14;97351.93;;;15.78;38.60
47080;BME280;33067;49.296;14.470;2023-05-07T08:50:36;97350.92;;;15.03;39.64
47080;BME280;33067;49.296;14.470;2023-05-07T08:52:58;97349.40;;;15.24;39.11
47080;BME280;33067;49.296;14.470;2023-05-07T08:55:24;97348.37;;;15.42;39.72
47080;BME280;33067;49.296;14.470;2023-05-07T08:57:49;97347.59;;;15.25;40.12
47080;BME280;33067;49.296;14.470;2023-05-07T09:00:15;97349.64;;;14.18;40.37
47080;BME280;33067;49.296;14.470;2023-05-07T09:02:40;97350.84;;;14.86;39.58
47080;BME280;33067;49.296;14.470;2023-05-07T09:05:07;97353.44;;;15.17;38.98
47080;BME280;33067;49.296;14.470;2023-05-07T09:07:32;97353.36;;;14.93;39.51
47080;BME280;33067;49.296;14.470;2023-05-07T09:09:57;97355.28;;;15.42;39.05
47080;BME280;33067;49.296;14.470;2023-05-07T09:12:22;97355.62;;;14.82;39.92
47080;BME280;33067;49.296;14.470;2023-05-07T09:14:48;97360.32;;;15.34;39.09
47080;BME280;33067;49.296;14.470;2023-05-07T09:17:13;97364.44;;;15.46;38.86
47080;BME280;33067;49.296;14.470;2023-05-07T09:19:39;97363.44;;;15.91;38.37
47080;BME280;33067;49.296;14.470;2023-05-07T09:22:05;97367.00;;;15.48;39.39
47080;BME280;33067;49.296;14.470;2023-05-07T09:24:30;97368.96;;;15.12;38.83
47080;BME280;33067;49.296;14.470;2023-05-07T09:26:57;97367.30;;;14.46;40.28
47080;BME280;33067;49.296;14.470;2023-05-07T09:29:20;97365.86;;;14.77;39.43
47080;BME280;33067;49.296;14.470;2023-05-07T09:31:46;97363.77;;;14.88;39.78
47080;BME280;33067;49.296;14.470;2023-05-07T09:34:12;97357.62;;;14.42;40.04
47080;BME280;33067;49.296;14.470;2023-05-07T09:36:37;97362.27;;;13.81;40.52
47080;BME280;33067;49.296;14.470;2023-05-07T09:39:03;97364.23;;;14.07;40.87
47080;BME280;33067;49.296;14.470;2023-05-07T09:41:30;97359.45;;;14.98;39.62
47080;BME280;33067;49.296;14.470;2023-05-07T09:43:55;97361.94;;;15.58;38.34
47080;BME280;33067;49.296;14.470;2023-05-07T09:46:25;97360.48;;;15.79;37.81
47080;BME280;33067;49.296;14.470;2023-05-07T09:48:47;97356.60;;;15.03;38.95
47080;BME280;33067;49.296;14.470;2023-05-07T09:51:18;97353.32;;;14.90;39.20
47080;BME280;33067;49.296;14.470;2023-05-07T09:53:38;97349.16;;;14.68;39.47
47080;BME280;33067;49.296;14.470;2023-05-07T09:56:03;97347.73;;;15.79;38.37
47080;BME280;33067;49.296;14.470;2023-05-07T09:58:28;97341.83;;;16.11;37.66
47080;BME280;33067;49.296;14.470;2023-05-07T10:00:54;97343.86;;;15.74;38.30
47080;BME280;33067;49.296;14.470;2023-05-07T10:03:19;97349.67;;;16.29;36.42
47080;BME280;33067;49.296;14.470;2023-05-07T10:05:45;97347.99;;;16.26;36.25
47080;BME280;33067;49.296;14.470;2023-05-07T10:08:10;97346.87;;;16.43;36.33
47080;BME280;33067;49.296;14.470;2023-05-07T10:10:36;97342.49;;;16.03;37.36
47080;BME280;33067;49.296;14.470;2023-05-07T10:13:02;97343.90;;;15.68;37.91
47080;BME280;33067;49.296;14.470;2023-05-07T10:15:28;97345.05;;;16.26;37.15
47080;BME280;33067;49.296;14.470;2023-05-07T10:17:53;97339.13;;;16.93;36.42
47080;BME280;33067;49.296;14.470;2023-05-07T10:20:17;97345.03;;;16.85;35.14
47080;BME280;33067;49.296;14.470;2023-05-07T10:22:45;97343.56;;;16.40;36.22
47080;BME280;33067;49.296;14.470;2023-05-07T10:25:14;97344.63;;;16.98;36.13
47080;BME280;33067;49.296;14.470;2023-05-07T10:27:34;97342.31;;;16.87;36.61
47080;BME280;33067;49.296;14.470;2023-05-07T10:30:05;97338.14;;;17.16;36.43
47080;BME280;33067;49.296;14.470;2023-05-07T10:32:36;97331.10;;;17.42;35.31
47080;BME280;33067;49.296;14.470;2023-05-07T10:34:51;97329.92;;;17.64;35.09
47080;BME280;33067;49.296;14.470;2023-05-07T10:37:15;97335.47;;;18.10;34.73
47080;BME280;33067;49.296;14.470;2023-05-07T10:39:41;97326.90;;;17.43;35.53
47080;BME280;33067;49.296;14.470;2023-05-07T10:42:09;97330.82;;;17.34;34.87
47080;BME280;33067;49.296;14.470;2023-05-07T10:44:31;97331.95;;;17.04;35.61
47080;BME280;33067;49.296;14.470;2023-05-07T10:47:06;97324.75;;;16.87;35.76
47080;BME280;33067;49.296;14.470;2023-05-07T10:49:22;97320.92;;;17.52;35.26
47080;BME280;33067;49.296;14.470;2023-05-07T10:54:22;97318.52;;;17.91;35.83
47080;BME280;33067;49.296;14.470;2023-05-07T10:56:38;97322.08;;;16.16;36.30
47080;BME280;33067;49.296;14.470;2023-05-07T11:06:19;97320.52;;;16.21;36.96
47080;BME280;33067;49.296;14.470;2023-05-07T11:08:53;97315.43;;;17.42;36.05
47080;BME280;33067;49.296;14.470;2023-05-07T11:11:10;97311.71;;;17.68;34.76
47080;BME280;33067;49.296;14.470;2023-05-07T11:13:41;97311.35;;;17.59;35.00
47080;BME280;33067;49.296;14.470;2023-05-07T11:16:01;97318.63;;;17.50;34.95
47080;BME280;33067;49.296;14.470;2023-05-07T11:20:55;97310.83;;;17.43;34.96
47080;BME280;33067;49.296;14.470;2023-05-07T11:25:41;97302.48;;;18.14;34.11
47080;BME280;33067;49.296;14.470;2023-05-07T11:28:07;97300.93;;;18.21;34.02
47080;BME280;33067;49.296;14.470;2023-05-07T11:30:32;97301.97;;;18.22;33.77
47080;BME280;33067;49.296;14.470;2023-05-07T11:32:58;97297.26;;;18.87;33.47
47080;BME280;33067;49.296;14.470;2023-05-07T11:35:24;97303.60;;;18.44;33.91
47080;BME280;33067;49.296;14.470;2023-05-07T11:37:50;97298.83;;;18.94;33.39
47080;BME280;33067;49.296;14.470;2023-05-07T11:40:14;97303.87;;;16.41;36.30
47080;BME280;33067;49.296;14.470;2023-05-07T11:42:41;97295.67;;;18.15;34.45
47080;BME280;33067;49.296;14.470;2023-05-07T11:45:07;97287.39;;;18.17;34.27
47080;BME280;33067;49.296;14.470;2023-05-07T11:47:31;97281.94;;;18.03;34.12
47080;BME280;33067;49.296;14.470;2023-05-07T11:49:57;97286.58;;;17.97;34.22
47080;BME280;33067;49.296;14.470;2023-05-07T11:52:23;97280.64;;;17.99;34.26
47080;BME280;33067;49.296;14.470;2023-05-07T11:54:49;97288.36;;;18.49;33.55
47080;BME280;33067;49.296;14.470;2023-05-07T11:57:15;97284.56;;;17.69;33.26
47080;BME280;33067;49.296;14.470;2023-05-07T11:59:39;97281.17;;;18.40;33.19
47080;BME280;33067;49.296;14.470;2023-05-07T12:02:05;97278.40;;;17.93;33.43
47080;BME280;33067;49.296;14.470;2023-05-07T12:04:30;97276.23;;;17.41;34.20
47080;BME280;33067;49.296;14.470;2023-05-07T12:06:56;97282.04;;;16.71;35.28
47080;BME280;33067;49.296;14.470;2023-05-07T12:09:21;97279.22;;;18.16;34.27
47080;BME280;33067;49.296;14.470;2023-05-07T12:11:46;97270.28;;;18.58;33.33
47080;BME280;33067;49.296;14.470;2023-05-07T12:14:12;97277.68;;;18.88;32.69
47080;BME280;33067;49.296;14.470;2023-05-07T12:16:38;97279.77;;;18.83;32.32
47080;BME280;33067;49.296;14.470;2023-05-07T12:19:03;97284.15;;;16.41;35.61
47080;BME280;33067;49.296;14.470;2023-05-07T12:21:28;97277.47;;;18.71;33.79
47080;BME280;33067;49.296;14.470;2023-05-07T12:23:53;97281.90;;;16.84;35.26
47080;BME280;33067;49.296;14.470;2023-05-07T12:26:19;97274.17;;;17.27;34.77
47080;BME280;33067;49.296;14.470;2023-05-07T12:28:43;97271.44;;;18.25;33.96
47080;BME280;33067;49.296;14.470;2023-05-07T12:31:09;97264.72;;;18.25;33.48
47080;BME280;33067;49.296;14.470;2023-05-07T12:33:35;97266.82;;;18.39;33.18
47080;BME280;33067;49.296;14.470;2023-05-07T12:36:04;97259.29;;;18.98;33.04
47080;BME280;33067;49.296;14.470;2023-05-07T12:38:25;97259.18;;;18.85;32.33
47080;BME280;33067;49.296;14.470;2023-05-07T12:40:53;97265.41;;;18.89;32.04
47080;BME280;33067;49.296;14.470;2023-05-07T12:43:16;97272.13;;;19.28;31.63
47080;BME280;33067;49.296;14.470;2023-05-07T12:45:41;97271.05;;;19.76;31.91
47080;BME280;33067;49.296;14.470;2023-05-07T12:48:05;97265.19;;;18.09;32.19
47080;BME280;33067;49.296;14.470;2023-05-07T12:50:32;97262.93;;;18.31;32.14
47080;BME280;33067;49.296;14.470;2023-05-07T12:52:56;97259.30;;;17.81;33.19
47080;BME280;33067;49.296;14.470;2023-05-07T12:55:21;97256.56;;;18.78;32.26
47080;BME280;33067;49.296;14.470;2023-05-07T12:57:48;97255.02;;;18.82;32.44